createdAt,value
2019-01-29T00:00:47.000Z,99098.68
2019-01-29T00:03:14.738Z,99104.17
2019-01-29T00:05:42.243Z,99106.77
2019-01-29T00:08:09.639Z,99103.86
2019-01-29T00:10:37.078Z,99103.03
2019-01-29T00:13:04.659Z,99102.13
2019-01-29T00:15:32.113Z,99108.59
2019-01-29T00:17:59.593Z,99116.16
2019-01-29T00:20:27.023Z,99117.61
2019-01-29T00:22:54.520Z,99118.07
2019-01-29T00:25:21.938Z,99117.13
2019-01-29T00:27:49.400Z,99126.34
2019-01-29T00:30:16.879Z,99126.19
2019-01-29T00:32:44.335Z,99121.08
2019-01-29T00:35:11.933Z,99114.25
2019-01-29T00:37:39.399Z,99117.75
2019-01-29T00:40:07.273Z,99112.22
2019-01-29T00:42:34.713Z,99121.55
2019-01-29T00:45:02.333Z,99122.46
2019-01-29T00:47:29.838Z,99127.64
2019-01-29T00:49:57.223Z,99120.20
2019-01-29T00:52:24.668Z,99124.56
2019-01-29T00:54:52.034Z,99127.20
2019-01-29T00:57:19.582Z,99131.42
2019-01-29T00:59:47.013Z,99134.39
2019-01-29T01:02:14.578Z,99134.39
2019-01-29T01:04:41.974Z,99141.05
2019-01-29T01:07:09.458Z,99142.94
2019-01-29T01:09:37.054Z,99143.84
2019-01-29T01:12:04.535Z,99150.31
2019-01-29T01:14:31.933Z,99153.45
2019-01-29T01:16:59.419Z,99147.92
2019-01-29T01:19:26.809Z,99159.38
2019-01-29T01:21:54.238Z,99157.19
2019-01-29T01:24:21.739Z,99163.91
2019-01-29T01:26:49.158Z,99176.89
2019-01-29T01:29:16.633Z,99175.40
2019-01-29T01:31:44.094Z,99183.64
2019-01-29T01:34:11.523Z,99187.40
2019-01-29T01:36:38.938Z,99191.71
2019-01-29T01:39:07.997Z,99186.58
2019-01-29T01:41:35.408Z,99190.11
2019-01-29T01:44:02.994Z,99188.62
2019-01-29T01:46:30.398Z,99194.08
2019-01-29T01:48:57.898Z,99195.30
2019-01-29T01:51:27.108Z,99205.18
2019-01-29T01:53:55.772Z,99199.72
2019-01-29T01:56:23.188Z,99195.45
2019-01-29T01:58:50.674Z,99200.47
2019-01-29T02:01:20.658Z,99198.78
2019-01-29T02:03:48.140Z,99191.75
2019-01-29T02:06:15.568Z,99193.95
2019-01-29T02:08:43.052Z,99197.22
2019-01-29T02:11:10.538Z,99190.00
2019-01-29T02:13:38.013Z,99198.55
2019-01-29T02:16:05.543Z,99199.77
2019-01-29T02:18:33.061Z,99195.42
2019-01-29T02:21:00.543Z,99205.33
2019-01-29T02:23:27.973Z,99206.27
2019-01-29T02:25:55.478Z,99204.86
2019-01-29T02:28:22.888Z,99203.88
2019-01-29T02:30:50.347Z,99210.53
2019-01-29T02:33:17.793Z,99205.72
2019-01-29T02:35:45.370Z,99206.66
2019-01-29T02:38:12.807Z,99210.53
2019-01-29T02:40:40.287Z,99212.93
2019-01-29T02:43:07.700Z,99214.39
2019-01-29T02:45:35.538Z,99216.78
2019-01-29T02:48:03.104Z,99221.14
2019-01-29T02:50:30.597Z,99224.28
2019-01-29T02:52:58.012Z,99225.58
2019-01-29T02:55:25.458Z,99228.25
2019-01-29T02:57:52.872Z,99226.29
2019-01-29T03:00:23.276Z,99232.33
2019-01-29T03:02:50.750Z,99238.52
2019-01-29T03:05:19.018Z,99245.63
2019-01-29T03:07:46.658Z,99250.06
2019-01-29T03:10:16.365Z,99242.69
2019-01-29T03:12:43.746Z,99249.05
2019-01-29T03:15:16.792Z,99255.91
2019-01-29T03:17:44.298Z,99259.76
2019-01-29T03:20:12.777Z,99260.50
2019-01-29T03:22:40.182Z,99261.25
2019-01-29T03:25:08.698Z,99268.63
2019-01-29T03:27:36.224Z,99269.19
2019-01-29T03:30:04.856Z,99269.84
2019-01-29T03:32:32.286Z,99265.77
2019-01-29T03:35:02.087Z,99259.02
2019-01-29T03:37:29.248Z,99252.66
2019-01-29T03:39:56.698Z,99266.32
2019-01-29T03:42:24.103Z,99264.86
2019-01-29T03:44:51.568Z,99255.33
2019-01-29T03:47:19.007Z,99267.80
2019-01-29T03:49:46.457Z,99263.37
2019-01-29T03:52:13.888Z,99264.86
2019-01-29T03:54:41.300Z,99260.31
2019-01-29T03:57:08.768Z,99254.61
2019-01-29T03:59:36.228Z,99254.14
2019-01-29T04:02:03.797Z,99256.62
2019-01-29T04:04:31.217Z,99260.42
2019-01-29T04:06:58.693Z,99261.99
2019-01-29T04:09:26.148Z,99259.41
2019-01-29T04:11:53.606Z,99259.48
2019-01-29T04:14:21.088Z,99263.17
2019-01-29T04:16:48.858Z,99264.20
2019-01-29T04:19:17.458Z,99273.38
2019-01-29T04:21:45.048Z,99264.31
2019-01-29T04:24:12.528Z,99268.27
2019-01-29T04:26:39.993Z,99270.86
2019-01-29T04:29:07.448Z,99279.28
2019-01-29T04:31:35.023Z,99274.68
2019-01-29T04:34:02.433Z,99275.39
2019-01-29T04:36:29.888Z,99280.95
2019-01-29T04:38:57.275Z,99286.39
2019-01-29T04:41:24.847Z,99283.37
2019-01-29T04:43:52.279Z,99288.34
2019-01-29T04:46:19.760Z,99284.46
2019-01-29T04:48:47.213Z,99292.34
2019-01-29T04:51:14.726Z,99285.29
2019-01-29T04:53:42.133Z,99291.68
2019-01-29T04:56:12.408Z,99294.92
2019-01-29T04:58:39.808Z,99287.23
2019-01-29T05:01:08.006Z,99291.76
2019-01-29T05:03:35.388Z,99295.75
2019-01-29T05:06:02.871Z,99297.95
2019-01-29T05:08:31.605Z,99295.75
2019-01-29T05:11:02.901Z,99307.68
2019-01-29T05:13:30.321Z,99303.97
2019-01-29T05:16:00.679Z,99307.21
2019-01-29T05:18:32.259Z,99308.39
2019-01-29T05:20:59.898Z,99310.73
2019-01-29T05:23:30.070Z,99302.41
2019-01-29T05:25:57.507Z,99305.74
2019-01-29T05:28:24.970Z,99301.47
2019-01-29T05:30:52.475Z,99302.48
2019-01-29T05:33:19.944Z,99306.46
2019-01-29T05:35:47.378Z,99311.00
2019-01-29T05:38:14.840Z,99304.45
2019-01-29T05:40:42.243Z,99314.99
2019-01-29T05:43:09.728Z,99321.99
2019-01-29T05:45:38.463Z,99323.13
2019-01-29T05:48:05.943Z,99327.09
2019-01-29T05:50:33.416Z,99327.83
2019-01-29T05:53:00.865Z,99326.53
2019-01-29T05:55:28.365Z,99334.58
2019-01-29T05:57:55.864Z,99332.19
2019-01-29T06:00:28.468Z,99330.16
2019-01-29T06:02:56.038Z,99330.04
2019-01-29T06:05:23.547Z,99326.73
2019-01-29T06:07:51.026Z,99325.53
2019-01-29T06:10:18.618Z,99325.14
2019-01-29T06:12:46.184Z,99328.13
2019-01-29T06:15:15.254Z,99325.25
2019-01-29T06:17:42.757Z,99330.04
2019-01-29T06:20:13.513Z,99330.34
2019-01-29T06:22:41.075Z,99332.55
2019-01-29T06:25:08.580Z,99325.14
2019-01-29T06:27:36.128Z,99327.45
2019-01-29T06:30:05.369Z,99321.26
2019-01-29T06:32:32.838Z,99324.59
2019-01-29T06:35:00.365Z,99330.69
2019-01-29T06:37:27.959Z,99319.70
2019-01-29T06:39:55.843Z,99320.63
2019-01-29T06:42:23.328Z,99318.48
2019-01-29T06:44:50.793Z,99324.88
2019-01-29T06:47:18.244Z,99325.33
2019-01-29T06:49:45.720Z,99318.69
2019-01-29T06:52:13.213Z,99333.64
2019-01-29T06:54:40.653Z,99339.67
2019-01-29T06:57:08.077Z,99341.61
2019-01-29T06:59:35.569Z,99343.27
2019-01-29T07:02:03.163Z,99332.72
2019-01-29T07:04:30.676Z,99339.48
2019-01-29T07:06:58.058Z,99352.25
2019-01-29T07:09:27.707Z,99343.00
2019-01-29T07:12:00.418Z,99353.00
2019-01-29T07:14:27.928Z,99349.20
2019-01-29T07:17:01.278Z,99353.44
2019-01-29T07:19:39.242Z,99354.58
2019-01-29T07:22:06.943Z,99354.38
2019-01-29T07:24:42.408Z,99358.91
2019-01-29T07:27:03.954Z,99354.38
2019-01-29T07:29:31.390Z,99361.31
2019-01-29T07:31:58.944Z,99358.36
2019-01-29T07:34:26.408Z,99363.80
2019-01-29T07:36:53.853Z,99359.09
2019-01-29T07:39:21.393Z,99365.67
2019-01-29T07:41:48.828Z,99356.69
2019-01-29T07:44:16.298Z,99366.69
2019-01-29T07:46:43.714Z,99371.31
2019-01-29T07:49:11.201Z,99369.81
2019-01-29T07:51:38.668Z,99378.61
2019-01-29T07:54:06.183Z,99377.39
2019-01-29T07:56:33.623Z,99382.48
2019-01-29T07:59:01.091Z,99372.32
2019-01-29T08:01:28.490Z,99365.00
2019-01-29T08:03:55.963Z,99368.86
2019-01-29T08:06:23.398Z,99373.33
2019-01-29T08:08:50.855Z,99371.76
2019-01-29T08:11:18.318Z,99378.69
2019-01-29T08:13:45.769Z,99377.50
2019-01-29T08:16:13.382Z,99379.05
2019-01-29T08:18:40.941Z,99378.97
2019-01-29T08:21:08.763Z,99372.76
2019-01-29T08:23:36.232Z,99383.58
2019-01-29T08:26:03.863Z,99383.86
2019-01-29T08:28:31.243Z,99387.02
2019-01-29T08:30:58.708Z,99387.66
2019-01-29T08:33:26.098Z,99385.36
2019-01-29T08:35:54.678Z,99393.13
2019-01-29T08:38:22.338Z,99390.73
2019-01-29T08:40:49.901Z,99387.48
2019-01-29T08:43:17.441Z,99387.67
2019-01-29T08:45:45.061Z,99388.22
2019-01-29T08:48:12.581Z,99394.05
2019-01-29T08:50:40.201Z,99392.92
2019-01-29T08:53:07.660Z,99390.53
2019-01-29T08:55:35.344Z,99387.47
2019-01-29T08:58:02.981Z,99391.00
2019-01-29T09:00:30.694Z,99384.71
2019-01-29T09:02:58.161Z,99389.70
2019-01-29T09:05:25.801Z,99380.47
2019-01-29T09:07:53.481Z,99386.94
2019-01-29T09:10:21.307Z,99376.66
2019-01-29T09:12:49.022Z,99383.03
2019-01-29T09:15:16.822Z,99382.38
2019-01-29T09:17:44.781Z,99377.28
2019-01-29T09:20:13.543Z,99381.45
2019-01-29T09:22:41.201Z,99381.91
2019-01-29T09:25:19.127Z,99380.37
2019-01-29T09:27:39.781Z,99380.81
2019-01-29T09:30:10.282Z,99376.66
2019-01-29T09:32:37.901Z,99380.38
2019-01-29T09:35:05.681Z,99367.61
2019-01-29T09:37:33.281Z,99374.52
2019-01-29T09:40:01.387Z,99363.27
2019-01-29T09:42:29.101Z,99368.31
2019-01-29T09:44:56.786Z,99366.20
2019-01-29T09:47:24.481Z,99370.80
2019-01-29T09:49:51.930Z,99362.67
2019-01-29T09:52:19.385Z,99361.81
2019-01-29T09:54:46.824Z,99355.09
2019-01-29T09:57:14.285Z,99360.04
2019-01-29T09:59:41.715Z,99356.31
2019-01-29T10:02:09.170Z,99359.39
2019-01-29T10:04:36.739Z,99357.92
2019-01-29T10:07:06.826Z,99347.14
2019-01-29T10:09:34.438Z,99344.46
2019-01-29T10:12:01.899Z,99341.42
2019-01-29T10:14:29.376Z,99346.52
2019-01-29T10:16:56.880Z,99340.27
2019-01-29T10:19:24.307Z,99336.43
2019-01-29T10:21:53.592Z,99339.83
2019-01-29T10:24:21.028Z,99328.69
2019-01-29T10:26:48.492Z,99329.44
2019-01-29T10:29:15.960Z,99326.77
2019-01-29T11:03:39.702Z,99302.86
2019-01-29T12:09:58.495Z,99254.54
2019-01-29T12:12:46.005Z,99257.05
2019-01-29T12:15:22.305Z,99244.80
2019-01-29T12:17:49.888Z,99242.06
2019-01-29T12:20:32.169Z,99245.33
2019-01-29T12:23:08.867Z,99245.05
2019-01-29T12:25:44.912Z,99243.25
2019-01-29T12:28:12.803Z,99235.52
2019-01-29T12:30:43.184Z,99231.84
2019-01-29T12:33:17.949Z,99229.64
2019-01-29T12:35:50.451Z,99234.38
2019-01-29T12:38:23.029Z,99231.77
2019-01-29T12:40:52.316Z,99228.77
2019-01-29T12:43:29.630Z,99230.48
2019-01-29T12:46:17.065Z,99226.49
2019-01-29T12:48:48.994Z,99209.81
2019-01-29T12:51:40.774Z,99209.25
2019-01-29T12:54:11.720Z,99203.58
2019-01-29T12:56:41.086Z,99209.98
2019-01-29T15:59:03.202Z,99030.35
2019-01-29T16:08:20.335Z,99035.89
2019-01-29T16:10:52.454Z,99029.10
2019-01-29T16:13:32.095Z,99021.53
2019-01-29T16:15:59.609Z,99019.11
2019-01-29T16:18:27.145Z,99021.53
2019-01-29T16:20:54.600Z,99021.66
2019-01-29T16:23:22.128Z,99013.62
2019-01-29T16:25:49.538Z,99011.13
2019-01-29T16:28:17.063Z,99012.42
2019-01-29T16:30:47.070Z,99013.36
2019-01-29T16:33:14.756Z,99006.66
2019-01-29T16:35:42.795Z,99007.27
2019-01-29T16:38:10.525Z,99010.00
2019-01-29T16:40:39.060Z,99004.85
2019-01-29T16:43:06.783Z,99009.50
2019-01-29T16:45:34.633Z,99006.45
2019-01-29T16:48:02.721Z,99002.77
2019-01-29T16:50:30.575Z,99002.82
2019-01-29T16:52:58.544Z,99000.34
2019-01-29T16:55:26.235Z,98994.86
2019-01-29T16:57:53.800Z,98996.36
2019-01-29T17:00:24.360Z,98997.92
2019-01-29T17:02:52.015Z,98988.12
2019-01-29T17:05:22.790Z,98986.47
2019-01-29T17:07:50.750Z,98981.81
2019-01-29T17:10:22.099Z,98985.44
2019-01-29T17:12:49.900Z,98980.64
2019-01-29T17:15:20.160Z,98976.53
2019-01-29T17:17:48.296Z,98972.64
2019-01-29T17:20:21.700Z,98971.48
2019-01-29T17:22:49.749Z,98968.16
2019-01-29T17:25:17.455Z,98970.44
2019-01-29T17:27:45.350Z,98966.00
2019-01-29T17:30:45.251Z,98972.56
2019-01-29T17:33:15.445Z,98970.30
2019-01-29T17:36:16.942Z,98975.16
2019-01-29T17:38:50.261Z,98971.42
2019-01-29T17:41:18.051Z,98970.84
2019-01-29T17:43:45.940Z,98965.61
2019-01-29T17:46:14.124Z,98961.19
2019-01-29T17:52:41.112Z,98965.24
2019-01-29T17:55:24.857Z,98955.94
2019-01-29T17:58:39.160Z,98959.00
2019-01-29T18:01:07.385Z,98960.41
2019-01-29T18:03:35.295Z,98964.28
2019-01-29T18:06:03.210Z,98952.93
2019-01-29T18:11:59.415Z,98950.61
2019-01-29T18:14:27.255Z,98952.53
2019-01-29T18:16:57.005Z,98939.20
2019-01-29T18:19:31.293Z,98942.06
2019-01-29T18:22:10.091Z,98940.69
2019-01-29T18:24:40.866Z,98936.16
2019-01-29T18:27:17.632Z,98929.09
2019-01-29T18:29:45.616Z,98926.58
2019-01-29T18:32:13.525Z,98920.42
2019-01-29T18:34:41.515Z,98913.72
2019-01-29T18:37:09.511Z,98917.25
2019-01-29T18:39:37.532Z,98921.37
2019-01-29T18:42:05.586Z,98920.58
2019-01-29T18:44:33.590Z,98920.05
2019-01-29T18:47:01.640Z,98922.95
2019-01-29T18:49:29.620Z,98917.45
2019-01-29T18:51:57.702Z,98912.42
2019-01-29T18:54:31.815Z,98911.19
2019-01-29T18:56:59.795Z,98909.98
2019-01-29T18:59:27.670Z,98911.34
2019-01-29T19:01:56.044Z,98903.10
2019-01-29T19:04:27.120Z,98904.60
2019-01-29T19:06:55.276Z,98905.42
2019-01-29T19:09:23.305Z,98900.45
2019-01-29T19:11:51.200Z,98900.23
2019-01-29T19:14:19.200Z,98897.53
2019-01-29T19:16:47.130Z,98900.39
2019-01-29T19:19:15.996Z,98896.22
2019-01-29T19:21:43.970Z,98895.89
2019-01-29T19:24:11.890Z,98892.14
2019-01-29T19:26:39.776Z,98890.87
2019-01-29T19:29:07.709Z,98895.48
2019-01-29T19:31:35.670Z,98889.30
2019-01-29T19:34:03.682Z,98891.69
2019-01-29T19:36:31.789Z,98895.13
2019-01-29T19:38:59.640Z,98890.59
2019-01-29T19:41:27.675Z,98898.23
2019-01-29T19:43:55.651Z,98886.98
2019-01-29T19:46:23.641Z,98885.95
2019-01-29T19:48:51.535Z,98884.89
2019-01-29T19:51:20.205Z,98882.07
2019-01-29T19:53:48.051Z,98886.17
2019-01-29T19:56:18.042Z,98883.94
2019-01-29T19:58:45.988Z,98876.25
2019-01-29T20:01:14.002Z,98867.88
2019-01-29T20:03:41.902Z,98872.22
2019-01-29T20:06:09.922Z,98873.26
2019-01-29T20:08:37.875Z,98860.84
2019-01-29T20:11:06.077Z,98867.52
2019-01-29T20:13:34.021Z,98867.31
2019-01-29T20:16:02.027Z,98862.14
2019-01-29T20:18:30.009Z,98864.34
2019-01-29T20:20:58.028Z,98858.55
2019-01-29T20:23:26.022Z,98859.49
2019-01-29T20:25:54.080Z,98862.25
2019-01-29T20:28:22.023Z,98850.26
2019-01-29T20:30:50.012Z,98847.00
2019-01-29T20:33:18.042Z,98854.25
2019-01-29T20:35:46.062Z,98848.70
2019-01-29T20:38:14.007Z,98843.37
2019-01-29T20:40:41.912Z,98851.48
2019-01-29T20:43:09.867Z,98835.84
2019-01-29T20:45:37.801Z,98841.37
2019-01-29T20:48:13.747Z,98841.16
2019-01-29T20:51:52.854Z,98836.47
2019-01-29T20:55:55.246Z,98830.12
2019-01-29T20:58:20.687Z,98825.57
2019-01-29T21:00:49.303Z,98821.34
2019-01-29T21:03:17.217Z,98822.31
2019-01-29T21:05:45.177Z,98815.83
2019-01-29T21:08:13.112Z,98813.23
2019-01-29T21:10:41.032Z,98815.53
2019-01-29T21:13:10.939Z,98808.95
2019-01-29T21:15:41.538Z,98807.10
2019-01-29T21:18:09.567Z,98818.20
2019-01-29T21:20:37.513Z,98814.68
2019-01-29T21:23:05.427Z,98804.25
2019-01-29T21:25:33.479Z,98806.02
2019-01-29T21:28:01.444Z,98808.59
2019-01-29T21:30:31.540Z,98803.16
2019-01-29T21:32:59.517Z,98799.75
2019-01-29T21:35:27.287Z,98801.60
2019-01-29T21:37:55.257Z,98793.31
2019-01-29T21:40:23.102Z,98795.14
2019-01-29T21:42:50.967Z,98782.69
2019-01-29T21:45:18.887Z,98784.36
2019-01-29T21:47:47.085Z,98781.53
2019-01-29T21:50:20.094Z,98775.59
2019-01-29T21:52:47.682Z,98778.98
2019-01-29T21:55:15.652Z,98773.69
2019-01-29T21:57:43.147Z,98774.86
2019-01-29T22:00:17.112Z,98773.28
2019-01-29T22:02:44.592Z,98765.69
2019-01-29T22:05:12.572Z,98766.51
2019-01-29T22:07:40.027Z,98770.85
2019-01-29T22:10:08.507Z,98760.98
2019-01-29T22:12:35.982Z,98760.16
2019-01-29T22:15:04.507Z,98758.05
2019-01-29T22:17:32.047Z,98755.20
2019-01-29T22:19:59.555Z,98759.08
2019-01-29T22:22:27.027Z,98758.31
2019-01-29T22:24:54.471Z,98750.18
2019-01-29T22:27:21.927Z,98747.12
2019-01-29T22:29:49.317Z,98738.94
2019-01-29T22:32:19.427Z,98744.04
2019-01-29T22:34:46.872Z,98743.70
2019-01-29T22:37:14.317Z,98742.15
2019-01-29T22:39:42.682Z,98739.33
2019-01-29T22:42:10.367Z,98741.48
2019-01-29T22:44:37.852Z,98736.41
2019-01-29T22:47:05.262Z,98727.20
2019-01-29T22:49:32.757Z,98731.09
2019-01-29T22:52:00.186Z,98726.88
2019-01-29T22:54:27.667Z,98718.11
2019-01-29T22:56:55.057Z,98719.55
2019-01-29T22:59:22.540Z,98723.89
2019-01-29T23:01:50.192Z,98717.44
2019-01-29T23:04:33.382Z,98710.45
2019-01-29T23:07:15.387Z,98705.94
2019-01-29T23:09:42.912Z,98704.40
2019-01-29T23:12:10.331Z,98703.92
2019-01-29T23:14:37.793Z,98701.66
2019-01-29T23:17:05.287Z,98696.91
2019-01-29T23:19:32.773Z,98700.91
2019-01-29T23:22:00.167Z,98693.80
2019-01-29T23:24:27.637Z,98695.64
2019-01-29T23:26:55.108Z,98684.53
2019-01-29T23:29:22.557Z,98681.30
2019-01-29T23:31:50.013Z,98679.18
2019-01-29T23:34:17.462Z,98680.79
2019-01-29T23:36:44.922Z,98676.45
2019-01-29T23:39:14.222Z,98672.19
2019-01-29T23:41:41.729Z,98666.41
2019-01-29T23:44:09.202Z,98670.23
2019-01-29T23:46:36.637Z,98663.55
2019-01-29T23:49:04.292Z,98661.71
2019-01-29T23:51:31.698Z,98660.78
2019-01-29T23:53:59.162Z,98653.31
2019-01-29T23:56:26.572Z,98657.56
2019-01-29T23:58:54.026Z,98649.16
